sensor_id;sensor_type;location;lat;lon;timestamp;P1;durP1;ratioP1;P2;durP2;ratioP2
42144;SDS011;27813;43.516;11.890;2023-09-07T04:46:10;2.70;;;2.00;;
42144;SDS011;27813;43.516;11.890;2023-09-07T04:50:18;2.92;;;2.20;;
42144;SDS011;27813;43.516;11.890;2023-09-07T04:54:23;3.03;;;2.33;;
42144;SDS011;27813;43.516;11.890;2023-09-07T04:58:27;2.78;;;2.10;;
42144;SDS011;27813;43.516;11.890;2023-09-07T05:02:32;2.92;;;2.28;;
42144;SDS011;27813;43.516;11.890;2023-09-07T05:06:42;3.10;;;2.25;;
42144;SDS011;27813;43.516;11.890;2023-09-07T05:10:48;3.22;;;2.72;;
42144;SDS011;27813;43.516;11.890;2023-09-07T05:14:53;3.42;;;2.30;;
42144;SDS011;27813;43.516;11.890;2023-09-07T05:18:57;2.60;;;2.30;;
42144;SDS011;27813;43.516;11.890;2023-09-07T05:23:02;3.33;;;2.15;;
42144;SDS011;27813;43.516;11.890;2023-09-07T05:27:06;2.95;;;2.15;;
42144;SDS011;27813;43.516;11.890;2023-09-07T05:31:11;3.33;;;2.30;;
42144;SDS011;27813;43.516;11.890;2023-09-07T05:35:16;7.88;;;2.63;;
42144;SDS011;27813;43.516;11.890;2023-09-07T05:39:22;3.63;;;2.38;;
42144;SDS011;27813;43.516;11.890;2023-09-07T05:43:27;3.20;;;2.55;;
42144;SDS011;27813;43.516;11.890;2023-09-07T05:47:31;3.53;;;2.55;;
42144;SDS011;27813;43.516;11.890;2023-09-07T05:51:36;3.35;;;2.22;;
42144;SDS011;27813;43.516;11.890;2023-09-07T05:55:41;3.20;;;2.22;;
42144;SDS011;27813;43.516;11.890;2023-09-07T05:59:45;5.75;;;2.22;;
42144;SDS011;27813;43.516;11.890;2023-09-07T06:03:50;2.45;;;1.98;;
42144;SDS011;27813;43.516;11.890;2023-09-07T06:07:56;2.75;;;2.17;;
42144;SDS011;27813;43.516;11.890;2023-09-07T06:12:02;3.85;;;2.03;;
42144;SDS011;27813;43.516;11.890;2023-09-07T06:16:07;2.72;;;1.95;;
42144;SDS011;27813;43.516;11.890;2023-09-07T06:20:11;2.70;;;1.98;;
42144;SDS011;27813;43.516;11.890;2023-09-07T06:24:16;4.47;;;1.73;;
42144;SDS011;27813;43.516;11.890;2023-09-07T06:28:20;3.28;;;2.15;;
42144;SDS011;27813;43.516;11.890;2023-09-07T06:32:26;2.63;;;2.28;;
42144;SDS011;27813;43.516;11.890;2023-09-07T06:36:30;3.58;;;2.45;;
42144;SDS011;27813;43.516;11.890;2023-09-07T06:40:51;3.15;;;2.28;;
42144;SDS011;27813;43.516;11.890;2023-09-07T06:44:57;7.75;;;2.45;;
42144;SDS011;27813;43.516;11.890;2023-09-07T06:49:01;2.88;;;2.10;;
42144;SDS011;27813;43.516;11.890;2023-09-07T06:53:07;4.65;;;2.20;;
42144;SDS011;27813;43.516;11.890;2023-09-07T06:57:22;2.42;;;1.73;;
42144;SDS011;27813;43.516;11.890;2023-09-07T07:01:28;3.13;;;2.00;;
42144;SDS011;27813;43.516;11.890;2023-09-07T07:05:34;2.65;;;2.00;;
42144;SDS011;27813;43.516;11.890;2023-09-07T07:09:38;2.60;;;1.83;;
42144;SDS011;27813;43.516;11.890;2023-09-07T07:13:43;2.67;;;2.03;;
42144;SDS011;27813;43.516;11.890;2023-09-07T07:17:47;2.83;;;2.10;;
42144;SDS011;27813;43.516;11.890;2023-09-07T07:21:52;2.47;;;1.85;;
42144;SDS011;27813;43.516;11.890;2023-09-07T07:25:56;2.88;;;2.13;;
42144;SDS011;27813;43.516;11.890;2023-09-07T07:30:02;3.33;;;2.17;;
42144;SDS011;27813;43.516;11.890;2023-09-07T07:34:06;3.05;;;2.08;;
42144;SDS011;27813;43.516;11.890;2023-09-07T07:38:11;3.50;;;1.95;;
42144;SDS011;27813;43.516;11.890;2023-09-07T07:42:18;3.03;;;1.92;;
42144;SDS011;27813;43.516;11.890;2023-09-07T07:46:22;3.10;;;2.10;;
42144;SDS011;27813;43.516;11.890;2023-09-07T07:50:27;4.22;;;1.90;;
42144;SDS011;27813;43.516;11.890;2023-09-07T07:54:33;3.20;;;1.88;;
42144;SDS011;27813;43.516;11.890;2023-09-07T07:58:38;2.78;;;1.70;;
42144;SDS011;27813;43.516;11.890;2023-09-07T08:02:42;4.88;;;2.28;;
42144;SDS011;27813;43.516;11.890;2023-09-07T08:06:48;2.75;;;2.10;;
42144;SDS011;27813;43.516;11.890;2023-09-07T08:10:53;3.17;;;1.90;;
42144;SDS011;27813;43.516;11.890;2023-09-07T08:14:57;3.60;;;2.42;;
42144;SDS011;27813;43.516;11.890;2023-09-07T08:19:01;3.05;;;2.25;;
42144;SDS011;27813;43.516;11.890;2023-09-07T08:23:07;2.70;;;1.80;;
42144;SDS011;27813;43.516;11.890;2023-09-07T08:27:14;3.83;;;1.95;;
42144;SDS011;27813;43.516;11.890;2023-09-07T08:31:27;2.47;;;1.85;;
42144;SDS011;27813;43.516;11.890;2023-09-07T08:35:31;3.28;;;1.90;;
42144;SDS011;27813;43.516;11.890;2023-09-07T08:39:38;3.72;;;2.03;;
42144;SDS011;27813;43.516;11.890;2023-09-07T08:43:44;3.13;;;1.45;;
42144;SDS011;27813;43.516;11.890;2023-09-07T08:47:49;2.53;;;1.90;;
42144;SDS011;27813;43.516;11.890;2023-09-07T08:51:58;9.45;;;2.55;;
42144;SDS011;27813;43.516;11.890;2023-09-07T08:56:03;3.22;;;1.98;;
42144;SDS011;27813;43.516;11.890;2023-09-07T09:00:10;2.97;;;1.98;;
42144;SDS011;27813;43.516;11.890;2023-09-07T09:04:20;2.58;;;2.00;;
42144;SDS011;27813;43.516;11.890;2023-09-07T09:08:30;3.67;;;2.15;;
42144;SDS011;27813;43.516;11.890;2023-09-07T09:12:45;2.30;;;1.70;;
42144;SDS011;27813;43.516;11.890;2023-09-07T09:16:52;2.13;;;1.90;;
42144;SDS011;27813;43.516;11.890;2023-09-07T09:20:57;2.40;;;1.85;;
42144;SDS011;27813;43.516;11.890;2023-09-07T09:25:02;2.45;;;2.00;;
42144;SDS011;27813;43.516;11.890;2023-09-07T09:29:09;3.15;;;1.92;;
42144;SDS011;27813;43.516;11.890;2023-09-07T09:33:15;2.72;;;1.98;;
42144;SDS011;27813;43.516;11.890;2023-09-07T09:37:23;3.85;;;2.08;;
42144;SDS011;27813;43.516;11.890;2023-09-07T09:41:31;3.53;;;2.22;;
42144;SDS011;27813;43.516;11.890;2023-09-07T09:45:37;3.97;;;2.22;;
42144;SDS011;27813;43.516;11.890;2023-09-07T09:49:42;3.55;;;1.80;;
42144;SDS011;27813;43.516;11.890;2023-09-07T09:53:47;2.20;;;1.80;;
42144;SDS011;27813;43.516;11.890;2023-09-07T09:57:53;2.40;;;2.08;;
42144;SDS011;27813;43.516;11.890;2023-09-07T10:02:00;2.30;;;2.10;;
42144;SDS011;27813;43.516;11.890;2023-09-07T10:06:12;3.13;;;2.33;;
42144;SDS011;27813;43.516;11.890;2023-09-07T10:10:25;2.28;;;1.95;;
42144;SDS011;27813;43.516;11.890;2023-09-07T10:14:42;2.22;;;1.95;;
42144;SDS011;27813;43.516;11.890;2023-09-07T10:18:49;3.25;;;2.00;;
42144;SDS011;27813;43.516;11.890;2023-09-07T10:23:02;2.45;;;2.10;;
42144;SDS011;27813;43.516;11.890;2023-09-07T10:27:08;2.63;;;1.92;;
42144;SDS011;27813;43.516;11.890;2023-09-07T10:31:18;2.45;;;1.92;;
42144;SDS011;27813;43.516;11.890;2023-09-07T10:35:23;3.05;;;1.80;;
42144;SDS011;27813;43.516;11.890;2023-09-07T10:39:32;2.63;;;1.80;;
42144;SDS011;27813;43.516;11.890;2023-09-07T10:43:36;3.22;;;2.13;;
42144;SDS011;27813;43.516;11.890;2023-09-07T10:47:54;2.85;;;2.00;;
42144;SDS011;27813;43.516;11.890;2023-09-07T10:51:58;2.80;;;2.05;;
42144;SDS011;27813;43.516;11.890;2023-09-07T10:56:03;11.57;;;6.93;;
42144;SDS011;27813;43.516;11.890;2023-09-07T11:00:10;6.45;;;2.33;;
42144;SDS011;27813;43.516;11.890;2023-09-07T11:04:15;2.67;;;1.98;;
42144;SDS011;27813;43.516;11.890;2023-09-07T11:08:21;4.50;;;1.92;;
42144;SDS011;27813;43.516;11.890;2023-09-07T11:12:26;2.60;;;1.80;;
42144;SDS011;27813;43.516;11.890;2023-09-07T11:16:35;2.85;;;2.20;;
42144;SDS011;27813;43.516;11.890;2023-09-07T11:20:39;3.15;;;2.08;;
42144;SDS011;27813;43.516;11.890;2023-09-07T11:24:46;3.35;;;2.20;;
42144;SDS011;27813;43.516;11.890;2023-09-07T11:28:51;3.10;;;1.98;;
42144;SDS011;27813;43.516;11.890;2023-09-07T11:33:05;2.67;;;1.90;;
42144;SDS011;27813;43.516;11.890;2023-09-07T11:37:10;3.92;;;2.00;;
42144;SDS011;27813;43.516;11.890;2023-09-07T11:41:14;4.13;;;2.20;;
42144;SDS011;27813;43.516;11.890;2023-09-07T11:45:19;2.75;;;2.17;;
42144;SDS011;27813;43.516;11.890;2023-09-07T11:49:23;3.33;;;2.33;;
42144;SDS011;27813;43.516;11.890;2023-09-07T11:53:28;3.65;;;2.17;;
42144;SDS011;27813;43.516;11.890;2023-09-07T11:57:33;2.30;;;1.98;;
42144;SDS011;27813;43.516;11.890;2023-09-07T12:01:38;2.63;;;2.05;;
42144;SDS011;27813;43.516;11.890;2023-09-07T12:05:43;6.97;;;2.33;;
42144;SDS011;27813;43.516;11.890;2023-09-07T12:09:47;4.00;;;2.78;;
42144;SDS011;27813;43.516;11.890;2023-09-07T12:13:53;2.80;;;2.10;;
42144;SDS011;27813;43.516;11.890;2023-09-07T12:17:57;5.13;;;2.10;;
42144;SDS011;27813;43.516;11.890;2023-09-07T12:22:02;6.10;;;2.47;;
42144;SDS011;27813;43.516;11.890;2023-09-07T12:26:06;2.45;;;2.05;;
42144;SDS011;27813;43.516;11.890;2023-09-07T12:30:12;2.80;;;2.17;;
42144;SDS011;27813;43.516;11.890;2023-09-07T12:34:16;2.40;;;2.20;;
42144;SDS011;27813;43.516;11.890;2023-09-07T12:38:20;3.47;;;2.05;;
42144;SDS011;27813;43.516;11.890;2023-09-07T12:42:30;2.60;;;2.10;;
42144;SDS011;27813;43.516;11.890;2023-09-07T12:46:34;2.80;;;2.10;;
42144;SDS011;27813;43.516;11.890;2023-09-07T12:50:40;3.75;;;2.20;;
42144;SDS011;27813;43.516;11.890;2023-09-07T12:54:46;4.38;;;2.20;;
42144;SDS011;27813;43.516;11.890;2023-09-07T12:58:50;2.60;;;2.22;;
42144;SDS011;27813;43.516;11.890;2023-09-07T13:02:55;5.95;;;2.30;;
42144;SDS011;27813;43.516;11.890;2023-09-07T13:07:00;4.15;;;2.35;;
42144;SDS011;27813;43.516;11.890;2023-09-07T13:11:08;4.10;;;2.33;;
42144;SDS011;27813;43.516;11.890;2023-09-07T13:15:12;3.80;;;2.10;;
42144;SDS011;27813;43.516;11.890;2023-09-07T13:19:17;4.40;;;3.00;;
42144;SDS011;27813;43.516;11.890;2023-09-07T13:23:21;3.28;;;2.55;;
42144;SDS011;27813;43.516;11.890;2023-09-07T13:27:26;4.93;;;2.60;;
42144;SDS011;27813;43.516;11.890;2023-09-07T13:31:30;2.90;;;2.60;;
42144;SDS011;27813;43.516;11.890;2023-09-07T13:35:34;5.40;;;2.75;;
42144;SDS011;27813;43.516;11.890;2023-09-07T13:39:39;2.85;;;2.40;;
42144;SDS011;27813;43.516;11.890;2023-09-07T13:43:44;3.33;;;2.40;;
42144;SDS011;27813;43.516;11.890;2023-09-07T13:47:48;4.65;;;2.40;;
42144;SDS011;27813;43.516;11.890;2023-09-07T13:51:53;3.38;;;2.38;;
42144;SDS011;27813;43.516;11.890;2023-09-07T13:55:58;2.65;;;2.30;;
42144;SDS011;27813;43.516;11.890;2023-09-07T14:00:02;3.90;;;2.67;;
42144;SDS011;27813;43.516;11.890;2023-09-07T14:04:10;3.20;;;2.35;;
42144;SDS011;27813;43.516;11.890;2023-09-07T14:08:14;5.28;;;3.20;;
42144;SDS011;27813;43.516;11.890;2023-09-07T14:12:19;5.10;;;2.50;;
42144;SDS011;27813;43.516;11.890;2023-09-07T14:16:23;4.80;;;2.75;;
42144;SDS011;27813;43.516;11.890;2023-09-07T14:20:28;4.28;;;3.05;;
42144;SDS011;27813;43.516;11.890;2023-09-07T14:24:32;4.97;;;2.75;;
42144;SDS011;27813;43.516;11.890;2023-09-07T14:28:36;3.22;;;2.40;;
42144;SDS011;27813;43.516;11.890;2023-09-07T14:32:42;3.40;;;2.47;;
42144;SDS011;27813;43.516;11.890;2023-09-07T14:36:46;3.42;;;2.50;;
42144;SDS011;27813;43.516;11.890;2023-09-07T14:40:51;3.00;;;2.60;;
42144;SDS011;27813;43.516;11.890;2023-09-07T14:44:58;2.65;;;2.30;;
42144;SDS011;27813;43.516;11.890;2023-09-07T14:49:06;3.13;;;2.30;;
42144;SDS011;27813;43.516;11.890;2023-09-07T14:53:10;3.60;;;2.50;;
42144;SDS011;27813;43.516;11.890;2023-09-07T14:57:14;4.32;;;2.30;;
42144;SDS011;27813;43.516;11.890;2023-09-07T15:01:21;3.90;;;2.88;;
42144;SDS011;27813;43.516;11.890;2023-09-07T15:05:26;3.55;;;2.50;;
42144;SDS011;27813;43.516;11.890;2023-09-07T15:09:30;4.57;;;2.50;;
42144;SDS011;27813;43.516;11.890;2023-09-07T15:13:34;2.53;;;2.17;;
42144;SDS011;27813;43.516;11.890;2023-09-07T15:17:39;3.95;;;2.30;;
42144;SDS011;27813;43.516;11.890;2023-09-07T15:21:47;3.30;;;2.40;;
42144;SDS011;27813;43.516;11.890;2023-09-07T15:25:52;4.28;;;2.63;;
42144;SDS011;27813;43.516;11.890;2023-09-07T15:29:56;3.00;;;2.60;;
42144;SDS011;27813;43.516;11.890;2023-09-07T15:34:01;3.80;;;2.50;;
42144;SDS011;27813;43.516;11.890;2023-09-07T15:38:06;4.70;;;2.65;;
42144;SDS011;27813;43.516;11.890;2023-09-07T15:42:10;2.45;;;2.25;;
42144;SDS011;27813;43.516;11.890;2023-09-07T15:46:14;3.15;;;2.30;;
42144;SDS011;27813;43.516;11.890;2023-09-07T15:50:19;3.60;;;2.40;;
42144;SDS011;27813;43.516;11.890;2023-09-07T15:54:23;6.13;;;2.50;;
42144;SDS011;27813;43.516;11.890;2023-09-07T15:58:27;2.88;;;2.30;;
42144;SDS011;27813;43.516;11.890;2023-09-07T16:02:32;6.72;;;3.00;;
42144;SDS011;27813;43.516;11.890;2023-09-07T16:06:37;3.90;;;2.95;;
42144;SDS011;27813;43.516;11.890;2023-09-07T16:10:41;3.58;;;2.30;;
42144;SDS011;27813;43.516;11.890;2023-09-07T16:14:45;3.65;;;2.80;;
42144;SDS011;27813;43.516;11.890;2023-09-07T16:18:50;3.20;;;2.70;;
42144;SDS011;27813;43.516;11.890;2023-09-07T16:22:54;4.47;;;2.97;;
42144;SDS011;27813;43.516;11.890;2023-09-07T16:26:58;3.45;;;2.45;;
42144;SDS011;27813;43.516;11.890;2023-09-07T16:31:03;4.95;;;2.80;;
42144;SDS011;27813;43.516;11.890;2023-09-07T16:35:08;3.85;;;2.60;;
42144;SDS011;27813;43.516;11.890;2023-09-07T16:39:13;8.93;;;3.60;;
42144;SDS011;27813;43.516;11.890;2023-09-07T16:43:18;3.90;;;3.03;;
42144;SDS011;27813;43.516;11.890;2023-09-07T16:47:22;5.70;;;2.90;;
42144;SDS011;27813;43.516;11.890;2023-09-07T16:51:26;3.72;;;3.25;;
42144;SDS011;27813;43.516;11.890;2023-09-07T16:55:31;6.43;;;3.40;;
42144;SDS011;27813;43.516;11.890;2023-09-07T16:59:35;5.13;;;3.50;;
42144;SDS011;27813;43.516;11.890;2023-09-07T17:03:58;5.40;;;3.10;;
42144;SDS011;27813;43.516;11.890;2023-09-07T17:08:03;4.60;;;3.35;;
42144;SDS011;27813;43.516;11.890;2023-09-07T17:12:11;5.28;;;3.65;;
42144;SDS011;27813;43.516;11.890;2023-09-07T17:16:20;5.28;;;3.85;;
42144;SDS011;27813;43.516;11.890;2023-09-07T17:20:24;3.40;;;2.97;;
42144;SDS011;27813;43.516;11.890;2023-09-07T17:24:29;3.58;;;2.92;;
42144;SDS011;27813;43.516;11.890;2023-09-07T17:28:33;4.68;;;3.40;;
42144;SDS011;27813;43.516;11.890;2023-09-07T17:32:38;6.80;;;3.47;;
42144;SDS011;27813;43.516;11.890;2023-09-07T17:36:44;3.47;;;3.03;;
42144;SDS011;27813;43.516;11.890;2023-09-07T17:40:48;5.03;;;3.20;;
42144;SDS011;27813;43.516;11.890;2023-09-07T17:44:52;6.15;;;3.13;;
42144;SDS011;27813;43.516;11.890;2023-09-07T17:48:56;7.32;;;4.43;;
42144;SDS011;27813;43.516;11.890;2023-09-07T17:53:01;4.18;;;3.30;;
42144;SDS011;27813;43.516;11.890;2023-09-07T17:57:05;3.70;;;3.20;;
42144;SDS011;27813;43.516;11.890;2023-09-07T18:01:10;4.82;;;2.90;;
42144;SDS011;27813;43.516;11.890;2023-09-07T18:05:15;4.05;;;3.03;;
42144;SDS011;27813;43.516;11.890;2023-09-07T18:09:24;3.47;;;3.17;;
42144;SDS011;27813;43.516;11.890;2023-09-07T18:13:28;5.82;;;2.85;;
42144;SDS011;27813;43.516;11.890;2023-09-07T18:17:32;4.28;;;3.72;;
42144;SDS011;27813;43.516;11.890;2023-09-07T18:21:38;4.22;;;3.00;;
42144;SDS011;27813;43.516;11.890;2023-09-07T18:25:43;4.35;;;3.20;;
42144;SDS011;27813;43.516;11.890;2023-09-07T18:29:50;4.20;;;3.40;;
42144;SDS011;27813;43.516;11.890;2023-09-07T18:33:55;4.78;;;2.90;;
42144;SDS011;27813;43.516;11.890;2023-09-07T18:37:59;3.97;;;2.88;;
42144;SDS011;27813;43.516;11.890;2023-09-07T18:42:03;3.10;;;2.80;;
42144;SDS011;27813;43.516;11.890;2023-09-07T18:46:08;4.20;;;2.80;;
42144;SDS011;27813;43.516;11.890;2023-09-07T18:50:12;6.63;;;3.40;;
42144;SDS011;27813;43.516;11.890;2023-09-07T18:54:17;4.97;;;3.30;;
42144;SDS011;27813;43.516;11.890;2023-09-07T18:58:26;4.20;;;2.90;;
42144;SDS011;27813;43.516;11.890;2023-09-07T19:02:33;4.45;;;3.10;;
42144;SDS011;27813;43.516;11.890;2023-09-07T19:06:38;3.92;;;3.35;;
42144;SDS011;27813;43.516;11.890;2023-09-07T19:10:44;7.60;;;3.75;;
42144;SDS011;27813;43.516;11.890;2023-09-07T19:14:49;6.25;;;3.45;;
42144;SDS011;27813;43.516;11.890;2023-09-07T19:18:54;3.63;;;2.70;;
42144;SDS011;27813;43.516;11.890;2023-09-07T19:22:58;3.40;;;3.10;;
42144;SDS011;27813;43.516;11.890;2023-09-07T19:27:03;4.40;;;3.30;;
42144;SDS011;27813;43.516;11.890;2023-09-07T19:31:07;3.55;;;2.95;;
42144;SDS011;27813;43.516;11.890;2023-09-07T19:35:11;3.58;;;3.10;;
42144;SDS011;27813;43.516;11.890;2023-09-07T19:39:15;4.20;;;3.35;;
42144;SDS011;27813;43.516;11.890;2023-09-07T19:43:20;3.58;;;3.15;;
42144;SDS011;27813;43.516;11.890;2023-09-07T19:47:24;4.40;;;3.65;;
42144;SDS011;27813;43.516;11.890;2023-09-07T19:51:31;5.18;;;2.88;;
42144;SDS011;27813;43.516;11.890;2023-09-07T19:55:36;4.20;;;3.55;;
42144;SDS011;27813;43.516;11.890;2023-09-07T19:59:43;5.00;;;3.47;;
42144;SDS011;27813;43.516;11.890;2023-09-07T20:03:52;5.07;;;3.58;;
42144;SDS011;27813;43.516;11.890;2023-09-07T20:07:57;3.72;;;3.38;;
42144;SDS011;27813;43.516;11.890;2023-09-07T20:12:02;5.28;;;3.67;;
42144;SDS011;27813;43.516;11.890;2023-09-07T20:16:07;3.97;;;3.35;;
42144;SDS011;27813;43.516;11.890;2023-09-07T20:20:14;3.88;;;3.47;;
42144;SDS011;27813;43.516;11.890;2023-09-07T20:24:19;4.50;;;3.92;;
42144;SDS011;27813;43.516;11.890;2023-09-07T20:28:24;3.90;;;3.35;;
42144;SDS011;27813;43.516;11.890;2023-09-07T20:32:31;3.92;;;3.53;;
42144;SDS011;27813;43.516;11.890;2023-09-07T20:36:35;4.57;;;3.80;;
42144;SDS011;27813;43.516;11.890;2023-09-07T20:40:40;4.90;;;3.95;;
42144;SDS011;27813;43.516;11.890;2023-09-07T20:44:44;6.80;;;4.28;;
42144;SDS011;27813;43.516;11.890;2023-09-07T20:48:48;6.40;;;4.05;;
42144;SDS011;27813;43.516;11.890;2023-09-07T20:52:53;4.45;;;4.05;;
42144;SDS011;27813;43.516;11.890;2023-09-07T20:56:58;4.93;;;4.28;;
42144;SDS011;27813;43.516;11.890;2023-09-07T21:01:02;5.88;;;3.95;;
42144;SDS011;27813;43.516;11.890;2023-09-07T21:05:14;5.00;;;4.00;;
42144;SDS011;27813;43.516;11.890;2023-09-07T21:09:23;5.53;;;4.22;;
42144;SDS011;27813;43.516;11.890;2023-09-07T21:13:28;6.05;;;4.10;;
42144;SDS011;27813;43.516;11.890;2023-09-07T21:17:32;4.75;;;4.30;;
42144;SDS011;27813;43.516;11.890;2023-09-07T21:21:37;5.38;;;4.38;;
42144;SDS011;27813;43.516;11.890;2023-09-07T21:25:42;6.78;;;4.07;;
42144;SDS011;27813;43.516;11.890;2023-09-07T21:29:48;4.47;;;4.03;;
42144;SDS011;27813;43.516;11.890;2023-09-07T21:33:55;4.85;;;4.25;;
42144;SDS011;27813;43.516;11.890;2023-09-07T21:37:59;4.90;;;4.05;;
42144;SDS011;27813;43.516;11.890;2023-09-07T21:42:04;4.55;;;3.92;;
42144;SDS011;27813;43.516;11.890;2023-09-07T21:46:08;7.32;;;4.00;;
42144;SDS011;27813;43.516;11.890;2023-09-07T21:50:13;6.18;;;4.40;;
42144;SDS011;27813;43.516;11.890;2023-09-07T21:54:17;4.32;;;3.85;;
42144;SDS011;27813;43.516;11.890;2023-09-07T21:58:21;4.80;;;3.70;;
42144;SDS011;27813;43.516;11.890;2023-09-07T22:02:25;4.63;;;3.90;;
42144;SDS011;27813;43.516;11.890;2023-09-07T22:06:30;5.82;;;3.78;;
42144;SDS011;27813;43.516;11.890;2023-09-07T22:10:34;4.00;;;3.58;;
42144;SDS011;27813;43.516;11.890;2023-09-07T22:14:39;5.72;;;3.85;;
42144;SDS011;27813;43.516;11.890;2023-09-07T22:18:43;6.05;;;4.13;;
42144;SDS011;27813;43.516;11.890;2023-09-07T22:22:47;7.45;;;3.95;;
42144;SDS011;27813;43.516;11.890;2023-09-07T22:26:54;8.13;;;4.55;;
42144;SDS011;27813;43.516;11.890;2023-09-07T22:31:00;6.07;;;4.20;;
42144;SDS011;27813;43.516;11.890;2023-09-07T22:35:05;4.72;;;3.97;;
42144;SDS011;27813;43.516;11.890;2023-09-07T22:39:10;5.55;;;4.47;;
42144;SDS011;27813;43.516;11.890;2023-09-07T22:43:14;7.53;;;3.83;;
42144;SDS011;27813;43.516;11.890;2023-09-07T22:47:19;4.40;;;4.00;;
42144;SDS011;27813;43.516;11.890;2023-09-07T22:51:23;4.72;;;3.72;;
42144;SDS011;27813;43.516;11.890;2023-09-07T22:55:41;5.68;;;4.00;;
42144;SDS011;27813;43.516;11.890;2023-09-07T22:59:49;4.20;;;3.67;;
42144;SDS011;27813;43.516;11.890;2023-09-07T23:03:55;4.18;;;3.70;;
42144;SDS011;27813;43.516;11.890;2023-09-07T23:07:59;4.35;;;3.58;;
42144;SDS011;27813;43.516;11.890;2023-09-07T23:12:04;4.15;;;3.50;;
42144;SDS011;27813;43.516;11.890;2023-09-07T23:16:09;5.50;;;3.90;;
42144;SDS011;27813;43.516;11.890;2023-09-07T23:20:13;4.18;;;3.78;;
42144;SDS011;27813;43.516;11.890;2023-09-07T23:24:18;4.32;;;3.38;;
42144;SDS011;27813;43.516;11.890;2023-09-07T23:28:23;4.18;;;3.42;;
